sensor_id;sensor_type;location;lat;lon;timestamp;P1;durP1;ratioP1;P2;durP2;ratioP2
78875;SDS011;68253;52.506;5.486;2024-02-26T00:00:45;9.75;;;3.72;;
78875;SDS011;68253;52.506;5.486;2024-02-26T00:03:12;7.90;;;2.92;;
78875;SDS011;68253;52.506;5.486;2024-02-26T00:05:38;9.18;;;3.50;;
78875;SDS011;68253;52.506;5.486;2024-02-26T00:08:04;7.63;;;3.05;;
78875;SDS011;68253;52.506;5.486;2024-02-26T00:10:31;8.27;;;3.15;;
78875;SDS011;68253;52.506;5.486;2024-02-26T00:12:57;7.93;;;3.03;;
78875;SDS011;68253;52.506;5.486;2024-02-26T00:15:23;7.70;;;2.60;;
78875;SDS011;68253;52.506;5.486;2024-02-26T00:17:50;8.23;;;2.95;;
78875;SDS011;68253;52.506;5.486;2024-02-26T00:20:16;7.13;;;2.70;;
78875;SDS011;68253;52.506;5.486;2024-02-26T00:22:42;9.88;;;2.97;;
78875;SDS011;68253;52.506;5.486;2024-02-26T00:25:08;8.77;;;3.25;;
78875;SDS011;68253;52.506;5.486;2024-02-26T00:27:34;8.10;;;3.08;;
78875;SDS011;68253;52.506;5.486;2024-02-26T00:30:01;8.38;;;2.92;;
78875;SDS011;68253;52.506;5.486;2024-02-26T00:32:27;7.82;;;2.80;;
78875;SDS011;68253;52.506;5.486;2024-02-26T00:34:53;9.15;;;2.75;;
78875;SDS011;68253;52.506;5.486;2024-02-26T00:37:19;8.23;;;2.50;;
78875;SDS011;68253;52.506;5.486;2024-02-26T00:39:45;7.25;;;2.65;;
78875;SDS011;68253;52.506;5.486;2024-02-26T00:42:12;6.93;;;2.35;;
78875;SDS011;68253;52.506;5.486;2024-02-26T00:44:38;6.97;;;2.55;;
78875;SDS011;68253;52.506;5.486;2024-02-26T00:47:04;8.20;;;2.50;;
78875;SDS011;68253;52.506;5.486;2024-02-26T00:49:30;8.20;;;3.05;;
78875;SDS011;68253;52.506;5.486;2024-02-26T00:51:56;8.60;;;3.50;;
78875;SDS011;68253;52.506;5.486;2024-02-26T00:54:22;8.73;;;2.80;;
78875;SDS011;68253;52.506;5.486;2024-02-26T00:56:48;8.25;;;3.15;;
78875;SDS011;68253;52.506;5.486;2024-02-26T00:59:14;9.32;;;3.20;;
78875;SDS011;68253;52.506;5.486;2024-02-26T01:01:40;8.95;;;3.13;;
78875;SDS011;68253;52.506;5.486;2024-02-26T01:04:07;9.13;;;3.10;;
78875;SDS011;68253;52.506;5.486;2024-02-26T01:06:33;9.15;;;3.72;;
78875;SDS011;68253;52.506;5.486;2024-02-26T01:08:59;9.50;;;3.80;;
78875;SDS011;68253;52.506;5.486;2024-02-26T01:11:25;9.15;;;3.25;;
78875;SDS011;68253;52.506;5.486;2024-02-26T01:13:51;8.90;;;3.70;;
78875;SDS011;68253;52.506;5.486;2024-02-26T01:16:24;8.43;;;3.05;;
78875;SDS011;68253;52.506;5.486;2024-02-26T01:18:51;9.43;;;3.85;;
78875;SDS011;68253;52.506;5.486;2024-02-26T01:21:17;8.90;;;3.33;;
78875;SDS011;68253;52.506;5.486;2024-02-26T01:23:43;9.93;;;4.13;;
78875;SDS011;68253;52.506;5.486;2024-02-26T01:26:09;10.38;;;4.40;;
78875;SDS011;68253;52.506;5.486;2024-02-26T01:28:35;10.00;;;4.38;;
78875;SDS011;68253;52.506;5.486;2024-02-26T01:31:04;9.23;;;3.78;;
78875;SDS011;68253;52.506;5.486;2024-02-26T01:33:33;10.25;;;4.28;;
78875;SDS011;68253;52.506;5.486;2024-02-26T01:35:59;11.30;;;4.82;;
78875;SDS011;68253;52.506;5.486;2024-02-26T01:38:26;11.02;;;4.63;;
78875;SDS011;68253;52.506;5.486;2024-02-26T01:40:53;11.07;;;4.47;;
78875;SDS011;68253;52.506;5.486;2024-02-26T01:43:19;10.40;;;4.18;;
78875;SDS011;68253;52.506;5.486;2024-02-26T01:45:45;10.70;;;4.72;;
78875;SDS011;68253;52.506;5.486;2024-02-26T01:48:11;12.73;;;5.05;;
78875;SDS011;68253;52.506;5.486;2024-02-26T01:50:37;11.10;;;4.05;;
78875;SDS011;68253;52.506;5.486;2024-02-26T01:53:05;9.98;;;3.92;;
78875;SDS011;68253;52.506;5.486;2024-02-26T01:55:32;10.73;;;4.93;;
78875;SDS011;68253;52.506;5.486;2024-02-26T01:57:59;11.48;;;4.90;;
78875;SDS011;68253;52.506;5.486;2024-02-26T02:00:25;11.27;;;4.47;;
78875;SDS011;68253;52.506;5.486;2024-02-26T02:02:52;9.43;;;3.53;;
78875;SDS011;68253;52.506;5.486;2024-02-26T02:05:20;10.63;;;4.22;;
78875;SDS011;68253;52.506;5.486;2024-02-26T02:07:46;9.98;;;3.42;;
78875;SDS011;68253;52.506;5.486;2024-02-26T02:10:14;10.05;;;3.72;;
78875;SDS011;68253;52.506;5.486;2024-02-26T02:12:41;9.82;;;4.00;;
78875;SDS011;68253;52.506;5.486;2024-02-26T02:15:08;10.38;;;4.13;;
78875;SDS011;68253;52.506;5.486;2024-02-26T02:17:35;10.63;;;3.97;;
78875;SDS011;68253;52.506;5.486;2024-02-26T02:20:02;10.60;;;4.35;;
78875;SDS011;68253;52.506;5.486;2024-02-26T02:22:29;9.18;;;4.10;;
78875;SDS011;68253;52.506;5.486;2024-02-26T02:24:57;10.80;;;4.38;;
78875;SDS011;68253;52.506;5.486;2024-02-26T02:27:24;9.68;;;3.90;;
78875;SDS011;68253;52.506;5.486;2024-02-26T02:29:51;9.60;;;3.60;;
78875;SDS011;68253;52.506;5.486;2024-02-26T02:32:18;10.63;;;4.32;;
78875;SDS011;68253;52.506;5.486;2024-02-26T02:34:45;11.00;;;3.92;;
78875;SDS011;68253;52.506;5.486;2024-02-26T02:37:11;10.90;;;4.03;;
78875;SDS011;68253;52.506;5.486;2024-02-26T02:39:37;10.05;;;4.07;;
78875;SDS011;68253;52.506;5.486;2024-02-26T02:42:04;10.48;;;4.15;;
78875;SDS011;68253;52.506;5.486;2024-02-26T02:44:30;11.77;;;5.10;;
78875;SDS011;68253;52.506;5.486;2024-02-26T02:46:56;11.10;;;5.10;;
78875;SDS011;68253;52.506;5.486;2024-02-26T02:49:22;12.18;;;4.90;;
78875;SDS011;68253;52.506;5.486;2024-02-26T02:51:49;10.90;;;4.70;;
78875;SDS011;68253;52.506;5.486;2024-02-26T02:54:15;11.25;;;4.60;;
78875;SDS011;68253;52.506;5.486;2024-02-26T02:56:41;10.77;;;4.57;;
78875;SDS011;68253;52.506;5.486;2024-02-26T02:59:07;11.13;;;4.20;;
78875;SDS011;68253;52.506;5.486;2024-02-26T03:01:33;12.98;;;5.18;;
78875;SDS011;68253;52.506;5.486;2024-02-26T03:03:59;12.63;;;5.15;;
78875;SDS011;68253;52.506;5.486;2024-02-26T03:06:25;13.52;;;5.75;;
78875;SDS011;68253;52.506;5.486;2024-02-26T03:08:53;11.88;;;5.35;;
78875;SDS011;68253;52.506;5.486;2024-02-26T03:11:20;11.93;;;4.78;;
78875;SDS011;68253;52.506;5.486;2024-02-26T03:13:46;13.55;;;5.55;;
78875;SDS011;68253;52.506;5.486;2024-02-26T03:16:12;11.75;;;4.70;;
78875;SDS011;68253;52.506;5.486;2024-02-26T03:18:39;10.80;;;4.47;;
78875;SDS011;68253;52.506;5.486;2024-02-26T03:21:06;12.02;;;4.50;;
78875;SDS011;68253;52.506;5.486;2024-02-26T03:23:32;14.25;;;5.10;;
78875;SDS011;68253;52.506;5.486;2024-02-26T03:26:04;13.25;;;5.60;;
78875;SDS011;68253;52.506;5.486;2024-02-26T03:28:31;12.73;;;5.40;;
78875;SDS011;68253;52.506;5.486;2024-02-26T03:30:59;13.32;;;5.30;;
78875;SDS011;68253;52.506;5.486;2024-02-26T03:33:26;14.75;;;5.80;;
78875;SDS011;68253;52.506;5.486;2024-02-26T03:35:52;14.10;;;5.53;;
78875;SDS011;68253;52.506;5.486;2024-02-26T03:38:18;15.18;;;5.72;;
78875;SDS011;68253;52.506;5.486;2024-02-26T03:40:44;13.35;;;5.47;;
78875;SDS011;68253;52.506;5.486;2024-02-26T03:43:10;13.30;;;5.32;;
78875;SDS011;68253;52.506;5.486;2024-02-26T03:45:38;13.70;;;5.32;;
78875;SDS011;68253;52.506;5.486;2024-02-26T03:48:04;13.05;;;4.95;;
78875;SDS011;68253;52.506;5.486;2024-02-26T03:50:31;14.07;;;5.68;;
78875;SDS011;68253;52.506;5.486;2024-02-26T03:52:57;13.55;;;5.13;;
78875;SDS011;68253;52.506;5.486;2024-02-26T03:55:24;14.07;;;5.00;;
78875;SDS011;68253;52.506;5.486;2024-02-26T03:57:53;14.25;;;5.80;;
78875;SDS011;68253;52.506;5.486;2024-02-26T04:00:20;14.35;;;5.75;;
78875;SDS011;68253;52.506;5.486;2024-02-26T04:02:46;14.18;;;5.25;;
78875;SDS011;68253;52.506;5.486;2024-02-26T04:05:13;14.65;;;6.28;;
78875;SDS011;68253;52.506;5.486;2024-02-26T04:07:40;15.55;;;6.20;;
78875;SDS011;68253;52.506;5.486;2024-02-26T04:10:10;15.68;;;6.35;;
78875;SDS011;68253;52.506;5.486;2024-02-26T04:15:09;13.27;;;5.50;;
78875;SDS011;68253;52.506;5.486;2024-02-26T04:17:36;18.70;;;7.03;;
78875;SDS011;68253;52.506;5.486;2024-02-26T04:20:03;13.95;;;5.50;;
78875;SDS011;68253;52.506;5.486;2024-02-26T04:22:32;15.23;;;6.00;;
78875;SDS011;68253;52.506;5.486;2024-02-26T04:24:59;14.70;;;6.30;;
78875;SDS011;68253;52.506;5.486;2024-02-26T04:27:25;15.88;;;6.55;;
78875;SDS011;68253;52.506;5.486;2024-02-26T04:29:51;16.13;;;6.90;;
78875;SDS011;68253;52.506;5.486;2024-02-26T04:32:17;16.17;;;6.97;;
78875;SDS011;68253;52.506;5.486;2024-02-26T04:34:43;16.55;;;6.80;;
78875;SDS011;68253;52.506;5.486;2024-02-26T04:37:09;16.23;;;7.20;;
78875;SDS011;68253;52.506;5.486;2024-02-26T04:39:35;17.65;;;7.43;;
78875;SDS011;68253;52.506;5.486;2024-02-26T04:42:02;17.35;;;8.30;;
78875;SDS011;68253;52.506;5.486;2024-02-26T04:44:29;15.98;;;6.30;;
78875;SDS011;68253;52.506;5.486;2024-02-26T04:46:55;18.92;;;8.30;;
78875;SDS011;68253;52.506;5.486;2024-02-26T04:49:22;17.55;;;7.45;;
78875;SDS011;68253;52.506;5.486;2024-02-26T04:51:48;15.68;;;7.65;;
78875;SDS011;68253;52.506;5.486;2024-02-26T04:54:14;15.43;;;6.75;;
78875;SDS011;68253;52.506;5.486;2024-02-26T04:56:40;15.75;;;7.07;;
78875;SDS011;68253;52.506;5.486;2024-02-26T04:59:06;18.45;;;7.97;;
78875;SDS011;68253;52.506;5.486;2024-02-26T05:01:32;16.70;;;7.32;;
78875;SDS011;68253;52.506;5.486;2024-02-26T05:03:59;17.85;;;8.25;;
78875;SDS011;68253;52.506;5.486;2024-02-26T05:06:25;16.30;;;6.82;;
78875;SDS011;68253;52.506;5.486;2024-02-26T05:08:51;17.67;;;7.40;;
78875;SDS011;68253;52.506;5.486;2024-02-26T05:11:17;15.38;;;7.03;;
78875;SDS011;68253;52.506;5.486;2024-02-26T05:13:43;19.40;;;8.80;;
78875;SDS011;68253;52.506;5.486;2024-02-26T05:16:11;15.60;;;6.63;;
78875;SDS011;68253;52.506;5.486;2024-02-26T05:18:37;16.65;;;7.90;;
78875;SDS011;68253;52.506;5.486;2024-02-26T05:21:03;16.13;;;7.43;;
78875;SDS011;68253;52.506;5.486;2024-02-26T05:23:29;14.48;;;6.25;;
78875;SDS011;68253;52.506;5.486;2024-02-26T05:25:55;15.45;;;6.88;;
78875;SDS011;68253;52.506;5.486;2024-02-26T05:28:21;15.13;;;7.03;;
78875;SDS011;68253;52.506;5.486;2024-02-26T05:30:48;16.08;;;6.43;;
78875;SDS011;68253;52.506;5.486;2024-02-26T05:33:14;15.05;;;6.53;;
78875;SDS011;68253;52.506;5.486;2024-02-26T05:35:40;17.27;;;7.57;;
78875;SDS011;68253;52.506;5.486;2024-02-26T05:38:06;15.77;;;7.10;;
78875;SDS011;68253;52.506;5.486;2024-02-26T05:40:32;15.23;;;6.50;;
78875;SDS011;68253;52.506;5.486;2024-02-26T05:42:58;15.35;;;6.65;;
78875;SDS011;68253;52.506;5.486;2024-02-26T05:45:24;14.68;;;6.60;;
78875;SDS011;68253;52.506;5.486;2024-02-26T05:47:50;16.77;;;7.20;;
78875;SDS011;68253;52.506;5.486;2024-02-26T05:50:16;13.60;;;5.90;;
78875;SDS011;68253;52.506;5.486;2024-02-26T05:52:42;13.77;;;6.35;;
78875;SDS011;68253;52.506;5.486;2024-02-26T05:55:09;17.38;;;7.82;;
78875;SDS011;68253;52.506;5.486;2024-02-26T05:57:36;14.38;;;6.18;;
78875;SDS011;68253;52.506;5.486;2024-02-26T06:00:02;15.90;;;7.38;;
78875;SDS011;68253;52.506;5.486;2024-02-26T06:02:37;15.57;;;7.32;;
78875;SDS011;68253;52.506;5.486;2024-02-26T06:05:03;14.80;;;6.50;;
78875;SDS011;68253;52.506;5.486;2024-02-26T06:07:29;14.35;;;6.00;;
78875;SDS011;68253;52.506;5.486;2024-02-26T06:09:55;14.80;;;6.28;;
78875;SDS011;68253;52.506;5.486;2024-02-26T06:12:21;16.15;;;7.68;;
78875;SDS011;68253;52.506;5.486;2024-02-26T06:14:48;13.45;;;6.00;;
78875;SDS011;68253;52.506;5.486;2024-02-26T06:17:14;13.80;;;6.00;;
78875;SDS011;68253;52.506;5.486;2024-02-26T06:19:40;12.70;;;5.70;;
78875;SDS011;68253;52.506;5.486;2024-02-26T06:22:06;12.50;;;5.38;;
78875;SDS011;68253;52.506;5.486;2024-02-26T06:24:32;13.07;;;5.00;;
78875;SDS011;68253;52.506;5.486;2024-02-26T06:26:58;13.10;;;5.28;;
78875;SDS011;68253;52.506;5.486;2024-02-26T06:29:25;12.77;;;5.15;;
78875;SDS011;68253;52.506;5.486;2024-02-26T06:31:51;17.45;;;6.13;;
78875;SDS011;68253;52.506;5.486;2024-02-26T06:34:17;10.50;;;4.10;;
78875;SDS011;68253;52.506;5.486;2024-02-26T06:36:43;12.88;;;4.78;;
78875;SDS011;68253;52.506;5.486;2024-02-26T06:39:09;11.85;;;4.72;;
78875;SDS011;68253;52.506;5.486;2024-02-26T06:41:36;10.80;;;4.47;;
78875;SDS011;68253;52.506;5.486;2024-02-26T06:44:05;12.30;;;4.97;;
78875;SDS011;68253;52.506;5.486;2024-02-26T06:46:31;11.10;;;4.55;;
78875;SDS011;68253;52.506;5.486;2024-02-26T06:48:57;11.02;;;3.88;;
78875;SDS011;68253;52.506;5.486;2024-02-26T06:51:23;10.82;;;4.20;;
78875;SDS011;68253;52.506;5.486;2024-02-26T06:53:49;11.02;;;4.43;;
78875;SDS011;68253;52.506;5.486;2024-02-26T06:56:16;10.88;;;4.25;;
78875;SDS011;68253;52.506;5.486;2024-02-26T06:58:42;12.00;;;4.07;;
78875;SDS011;68253;52.506;5.486;2024-02-26T07:01:08;11.05;;;4.25;;
78875;SDS011;68253;52.506;5.486;2024-02-26T07:03:34;10.82;;;3.55;;
78875;SDS011;68253;52.506;5.486;2024-02-26T07:06:00;11.00;;;4.15;;
78875;SDS011;68253;52.506;5.486;2024-02-26T07:08:26;10.80;;;3.65;;
78875;SDS011;68253;52.506;5.486;2024-02-26T07:10:52;11.82;;;4.25;;
78875;SDS011;68253;52.506;5.486;2024-02-26T07:13:18;11.07;;;3.70;;
78875;SDS011;68253;52.506;5.486;2024-02-26T07:15:45;10.48;;;3.70;;
78875;SDS011;68253;52.506;5.486;2024-02-26T07:18:11;11.30;;;3.88;;
78875;SDS011;68253;52.506;5.486;2024-02-26T07:20:37;10.15;;;3.35;;
78875;SDS011;68253;52.506;5.486;2024-02-26T07:23:03;9.85;;;3.67;;
78875;SDS011;68253;52.506;5.486;2024-02-26T07:25:29;10.20;;;3.63;;
78875;SDS011;68253;52.506;5.486;2024-02-26T07:27:56;8.35;;;2.88;;
78875;SDS011;68253;52.506;5.486;2024-02-26T07:30:22;9.38;;;3.10;;
78875;SDS011;68253;52.506;5.486;2024-02-26T07:32:49;8.13;;;2.80;;
78875;SDS011;68253;52.506;5.486;2024-02-26T07:35:16;7.88;;;2.45;;
78875;SDS011;68253;52.506;5.486;2024-02-26T07:37:43;7.13;;;2.40;;
78875;SDS011;68253;52.506;5.486;2024-02-26T07:40:11;7.85;;;2.65;;
78875;SDS011;68253;52.506;5.486;2024-02-26T07:42:37;6.72;;;2.10;;
78875;SDS011;68253;52.506;5.486;2024-02-26T07:45:05;7.82;;;2.33;;
78875;SDS011;68253;52.506;5.486;2024-02-26T07:47:31;7.15;;;2.25;;
78875;SDS011;68253;52.506;5.486;2024-02-26T07:50:00;6.68;;;2.10;;
78875;SDS011;68253;52.506;5.486;2024-02-26T07:52:26;7.03;;;2.10;;
78875;SDS011;68253;52.506;5.486;2024-02-26T07:54:52;6.38;;;2.22;;
78875;SDS011;68253;52.506;5.486;2024-02-26T07:57:18;7.85;;;2.42;;
78875;SDS011;68253;52.506;5.486;2024-02-26T07:59:46;8.60;;;2.58;;
78875;SDS011;68253;52.506;5.486;2024-02-26T08:02:15;8.52;;;2.80;;
78875;SDS011;68253;52.506;5.486;2024-02-26T08:04:42;8.30;;;2.47;;
78875;SDS011;68253;52.506;5.486;2024-02-26T08:07:08;6.97;;;2.22;;
78875;SDS011;68253;52.506;5.486;2024-02-26T08:09:34;6.38;;;2.17;;
78875;SDS011;68253;52.506;5.486;2024-02-26T08:12:00;7.38;;;2.20;;
78875;SDS011;68253;52.506;5.486;2024-02-26T08:14:26;6.95;;;2.17;;
78875;SDS011;68253;52.506;5.486;2024-02-26T08:16:52;7.22;;;2.20;;
78875;SDS011;68253;52.506;5.486;2024-02-26T08:19:18;5.97;;;1.95;;
78875;SDS011;68253;52.506;5.486;2024-02-26T08:21:44;7.40;;;2.05;;
78875;SDS011;68253;52.506;5.486;2024-02-26T08:24:11;7.20;;;2.40;;
78875;SDS011;68253;52.506;5.486;2024-02-26T08:26:37;8.00;;;2.50;;
78875;SDS011;68253;52.506;5.486;2024-02-26T08:29:03;7.38;;;2.10;;
78875;SDS011;68253;52.506;5.486;2024-02-26T08:31:29;7.35;;;2.35;;
78875;SDS011;68253;52.506;5.486;2024-02-26T08:33:56;5.80;;;1.92;;
78875;SDS011;68253;52.506;5.486;2024-02-26T08:36:22;7.68;;;2.47;;
78875;SDS011;68253;52.506;5.486;2024-02-26T08:38:48;7.18;;;2.13;;
78875;SDS011;68253;52.506;5.486;2024-02-26T08:41:14;7.43;;;2.10;;
78875;SDS011;68253;52.506;5.486;2024-02-26T08:43:40;7.50;;;2.40;;
78875;SDS011;68253;52.506;5.486;2024-02-26T08:46:09;6.82;;;2.33;;
78875;SDS011;68253;52.506;5.486;2024-02-26T08:48:38;8.00;;;2.33;;
78875;SDS011;68253;52.506;5.486;2024-02-26T08:51:06;7.93;;;2.45;;
78875;SDS011;68253;52.506;5.486;2024-02-26T08:53:32;7.78;;;2.60;;
78875;SDS011;68253;52.506;5.486;2024-02-26T08:55:59;7.05;;;2.35;;
78875;SDS011;68253;52.506;5.486;2024-02-26T08:58:26;7.85;;;2.70;;
78875;SDS011;68253;52.506;5.486;2024-02-26T09:00:53;7.45;;;2.67;;
78875;SDS011;68253;52.506;5.486;2024-02-26T09:03:19;7.55;;;2.60;;
78875;SDS011;68253;52.506;5.486;2024-02-26T09:05:45;6.47;;;1.90;;
78875;SDS011;68253;52.506;5.486;2024-02-26T09:08:11;8.50;;;2.92;;
78875;SDS011;68253;52.506;5.486;2024-02-26T09:10:38;7.45;;;2.17;;
78875;SDS011;68253;52.506;5.486;2024-02-26T09:13:04;7.47;;;2.13;;
78875;SDS011;68253;52.506;5.486;2024-02-26T09:15:30;8.73;;;2.60;;
78875;SDS011;68253;52.506;5.486;2024-02-26T09:17:57;8.88;;;2.22;;
78875;SDS011;68253;52.506;5.486;2024-02-26T09:20:23;8.00;;;2.53;;
78875;SDS011;68253;52.506;5.486;2024-02-26T09:22:50;9.70;;;2.92;;
78875;SDS011;68253;52.506;5.486;2024-02-26T09:25:16;8.63;;;2.33;;
78875;SDS011;68253;52.506;5.486;2024-02-26T09:27:43;7.50;;;2.50;;
78875;SDS011;68253;52.506;5.486;2024-02-26T09:30:10;7.65;;;2.40;;
78875;SDS011;68253;52.506;5.486;2024-02-26T09:32:37;7.35;;;2.25;;
78875;SDS011;68253;52.506;5.486;2024-02-26T09:35:04;6.60;;;2.20;;
78875;SDS011;68253;52.506;5.486;2024-02-26T09:37:31;7.35;;;2.22;;
78875;SDS011;68253;52.506;5.486;2024-02-26T09:39:59;9.07;;;2.40;;
78875;SDS011;68253;52.506;5.486;2024-02-26T09:42:26;8.50;;;2.53;;
78875;SDS011;68253;52.506;5.486;2024-02-26T09:44:55;8.63;;;2.30;;
78875;SDS011;68253;52.506;5.486;2024-02-26T09:47:23;6.07;;;2.00;;
78875;SDS011;68253;52.506;5.486;2024-02-26T09:49:53;8.48;;;2.55;;
78875;SDS011;68253;52.506;5.486;2024-02-26T09:52:23;7.80;;;2.58;;
78875;SDS011;68253;52.506;5.486;2024-02-26T09:54:49;6.88;;;2.08;;
78875;SDS011;68253;52.506;5.486;2024-02-26T09:57:16;6.82;;;2.15;;
78875;SDS011;68253;52.506;5.486;2024-02-26T09:59:43;6.82;;;1.90;;
78875;SDS011;68253;52.506;5.486;2024-02-26T10:02:13;7.18;;;2.15;;
78875;SDS011;68253;52.506;5.486;2024-02-26T10:04:40;7.53;;;2.25;;
78875;SDS011;68253;52.506;5.486;2024-02-26T10:07:11;7.65;;;2.45;;
78875;SDS011;68253;52.506;5.486;2024-02-26T10:09:39;7.40;;;2.33;;
78875;SDS011;68253;52.506;5.486;2024-02-26T10:12:06;6.55;;;2.03;;
78875;SDS011;68253;52.506;5.486;2024-02-26T10:14:35;7.47;;;2.08;;
78875;SDS011;68253;52.506;5.486;2024-02-26T10:17:02;6.93;;;2.35;;
78875;SDS011;68253;52.506;5.486;2024-02-26T10:19:28;7.50;;;2.65;;
78875;SDS011;68253;52.506;5.486;2024-02-26T10:21:56;6.95;;;2.17;;
78875;SDS011;68253;52.506;5.486;2024-02-26T10:24:23;7.65;;;2.08;;
78875;SDS011;68253;52.506;5.486;2024-02-26T10:26:51;6.32;;;2.13;;
78875;SDS011;68253;52.506;5.486;2024-02-26T10:29:18;7.15;;;2.05;;
78875;SDS011;68253;52.506;5.486;2024-02-26T10:31:45;8.05;;;2.10;;
78875;SDS011;68253;52.506;5.486;2024-02-26T10:34:11;8.95;;;3.10;;
78875;SDS011;68253;52.506;5.486;2024-02-26T10:36:38;8.45;;;2.65;;
78875;SDS011;68253;52.506;5.486;2024-02-26T10:39:06;7.82;;;2.08;;
78875;SDS011;68253;52.506;5.486;2024-02-26T10:41:37;8.30;;;2.38;;
78875;SDS011;68253;52.506;5.486;2024-02-26T10:44:04;7.50;;;2.30;;
78875;SDS011;68253;52.506;5.486;2024-02-26T10:46:30;11.40;;;2.63;;
78875;SDS011;68253;52.506;5.486;2024-02-26T10:48:56;7.40;;;2.30;;
78875;SDS011;68253;52.506;5.486;2024-02-26T10:51:26;8.68;;;2.63;;
78875;SDS011;68253;52.506;5.486;2024-02-26T10:53:54;7.13;;;2.47;;
78875;SDS011;68253;52.506;5.486;2024-02-26T10:56:26;7.20;;;1.92;;
78875;SDS011;68253;52.506;5.486;2024-02-26T10:58:54;7.18;;;2.03;;
78875;SDS011;68253;52.506;5.486;2024-02-26T11:01:21;6.10;;;1.92;;
78875;SDS011;68253;52.506;5.486;2024-02-26T11:03:49;7.60;;;2.13;;
78875;SDS011;68253;52.506;5.486;2024-02-26T11:06:17;8.00;;;2.05;;
78875;SDS011;68253;52.506;5.486;2024-02-26T11:08:49;6.50;;;2.03;;
78875;SDS011;68253;52.506;5.486;2024-02-26T11:11:19;7.18;;;2.10;;
78875;SDS011;68253;52.506;5.486;2024-02-26T11:13:46;6.18;;;2.03;;
78875;SDS011;68253;52.506;5.486;2024-02-26T11:16:20;6.55;;;1.98;;
78875;SDS011;68253;52.506;5.486;2024-02-26T11:18:47;5.57;;;1.77;;
78875;SDS011;68253;52.506;5.486;2024-02-26T11:21:18;5.85;;;1.92;;
78875;SDS011;68253;52.506;5.486;2024-02-26T11:23:45;6.40;;;2.03;;
78875;SDS011;68253;52.506;5.486;2024-02-26T11:26:12;6.50;;;1.98;;
78875;SDS011;68253;52.506;5.486;2024-02-26T11:28:41;6.68;;;2.40;;
78875;SDS011;68253;52.506;5.486;2024-02-26T11:31:08;6.13;;;1.67;;
78875;SDS011;68253;52.506;5.486;2024-02-26T11:33:34;5.28;;;1.58;;
78875;SDS011;68253;52.506;5.486;2024-02-26T11:36:10;6.28;;;2.30;;
78875;SDS011;68253;52.506;5.486;2024-02-26T11:38:37;5.57;;;1.80;;
78875;SDS011;68253;52.506;5.486;2024-02-26T11:41:07;6.45;;;1.88;;
78875;SDS011;68253;52.506;5.486;2024-02-26T11:43:49;7.40;;;2.00;;
78875;SDS011;68253;52.506;5.486;2024-02-26T11:46:40;7.78;;;2.28;;
78875;SDS011;68253;52.506;5.486;2024-02-26T11:51:51;5.88;;;2.08;;
78875;SDS011;68253;52.506;5.486;2024-02-26T11:57:25;6.65;;;2.00;;
78875;SDS011;68253;52.506;5.486;2024-02-26T12:00:12;5.25;;;1.55;;
78875;SDS011;68253;52.506;5.486;2024-02-26T12:02:46;6.13;;;1.77;;
78875;SDS011;68253;52.506;5.486;2024-02-26T12:05:14;5.55;;;1.60;;
78875;SDS011;68253;52.506;5.486;2024-02-26T12:08:00;8.43;;;2.30;;
78875;SDS011;68253;52.506;5.486;2024-02-26T12:10:36;6.68;;;2.03;;
78875;SDS011;68253;52.506;5.486;2024-02-26T12:13:16;6.70;;;1.73;;
78875;SDS011;68253;52.506;5.486;2024-02-26T12:15:43;6.75;;;1.90;;
78875;SDS011;68253;52.506;5.486;2024-02-26T12:18:15;7.55;;;2.10;;
78875;SDS011;68253;52.506;5.486;2024-02-26T12:20:43;5.32;;;1.63;;
78875;SDS011;68253;52.506;5.486;2024-02-26T12:25:45;6.68;;;2.13;;
78875;SDS011;68253;52.506;5.486;2024-02-26T12:28:14;6.47;;;1.77;;
78875;SDS011;68253;52.506;5.486;2024-02-26T12:30:40;6.28;;;1.70;;
78875;SDS011;68253;52.506;5.486;2024-02-26T12:33:07;6.53;;;1.77;;
78875;SDS011;68253;52.506;5.486;2024-02-26T12:35:34;5.20;;;1.45;;
78875;SDS011;68253;52.506;5.486;2024-02-26T12:38:01;5.53;;;1.58;;
78875;SDS011;68253;52.506;5.486;2024-02-26T12:40:29;5.97;;;1.52;;
78875;SDS011;68253;52.506;5.486;2024-02-26T12:42:56;4.82;;;1.42;;
78875;SDS011;68253;52.506;5.486;2024-02-26T12:45:22;6.32;;;1.73;;
78875;SDS011;68253;52.506;5.486;2024-02-26T12:47:48;5.50;;;1.38;;
78875;SDS011;68253;52.506;5.486;2024-02-26T12:50:15;6.57;;;1.75;;
78875;SDS011;68253;52.506;5.486;2024-02-26T12:52:45;8.32;;;1.80;;
78875;SDS011;68253;52.506;5.486;2024-02-26T12:55:17;5.68;;;1.58;;
78875;SDS011;68253;52.506;5.486;2024-02-26T12:57:45;5.60;;;1.73;;
78875;SDS011;68253;52.506;5.486;2024-02-26T13:00:13;5.93;;;1.52;;
78875;SDS011;68253;52.506;5.486;2024-02-26T13:02:41;5.85;;;1.73;;
78875;SDS011;68253;52.506;5.486;2024-02-26T13:05:10;4.50;;;1.30;;
78875;SDS011;68253;52.506;5.486;2024-02-26T13:07:42;4.95;;;1.45;;
78875;SDS011;68253;52.506;5.486;2024-02-26T13:10:09;6.90;;;1.67;;
78875;SDS011;68253;52.506;5.486;2024-02-26T13:12:41;5.38;;;1.83;;
78875;SDS011;68253;52.506;5.486;2024-02-26T13:15:13;6.63;;;1.70;;
78875;SDS011;68253;52.506;5.486;2024-02-26T13:17:40;4.72;;;1.42;;
78875;SDS011;68253;52.506;5.486;2024-02-26T13:20:07;5.20;;;1.65;;
78875;SDS011;68253;52.506;5.486;2024-02-26T13:22:35;5.47;;;1.70;;
78875;SDS011;68253;52.506;5.486;2024-02-26T13:25:02;5.75;;;1.48;;
78875;SDS011;68253;52.506;5.486;2024-02-26T13:27:29;5.75;;;1.73;;
78875;SDS011;68253;52.506;5.486;2024-02-26T13:30:05;4.63;;;1.45;;
78875;SDS011;68253;52.506;5.486;2024-02-26T13:32:35;6.38;;;1.88;;
78875;SDS011;68253;52.506;5.486;2024-02-26T13:35:13;5.60;;;1.50;;
78875;SDS011;68253;52.506;5.486;2024-02-26T13:37:39;5.00;;;1.40;;
78875;SDS011;68253;52.506;5.486;2024-02-26T13:40:06;5.85;;;1.52;;
78875;SDS011;68253;52.506;5.486;2024-02-26T13:42:37;5.80;;;1.75;;
78875;SDS011;68253;52.506;5.486;2024-02-26T13:45:04;7.18;;;1.63;;
78875;SDS011;68253;52.506;5.486;2024-02-26T13:47:34;6.68;;;1.90;;
78875;SDS011;68253;52.506;5.486;2024-02-26T13:50:00;4.97;;;1.52;;
78875;SDS011;68253;52.506;5.486;2024-02-26T13:52:27;7.30;;;1.75;;
78875;SDS011;68253;52.506;5.486;2024-02-26T13:54:53;5.45;;;1.50;;
78875;SDS011;68253;52.506;5.486;2024-02-26T13:57:20;6.50;;;1.90;;
78875;SDS011;68253;52.506;5.486;2024-02-26T13:59:46;6.00;;;1.60;;
78875;SDS011;68253;52.506;5.486;2024-02-26T14:02:13;6.82;;;1.92;;
78875;SDS011;68253;52.506;5.486;2024-02-26T14:04:39;7.93;;;1.65;;
78875;SDS011;68253;52.506;5.486;2024-02-26T14:07:05;5.95;;;1.80;;
78875;SDS011;68253;52.506;5.486;2024-02-26T14:09:32;7.57;;;2.08;;
78875;SDS011;68253;52.506;5.486;2024-02-26T14:11:58;5.85;;;1.73;;
78875;SDS011;68253;52.506;5.486;2024-02-26T14:14:27;6.93;;;1.73;;
78875;SDS011;68253;52.506;5.486;2024-02-26T14:16:53;6.60;;;1.60;;
78875;SDS011;68253;52.506;5.486;2024-02-26T14:19:19;6.38;;;2.15;;
78875;SDS011;68253;52.506;5.486;2024-02-26T14:21:46;7.05;;;1.80;;
78875;SDS011;68253;52.506;5.486;2024-02-26T14:24:12;7.40;;;1.80;;
78875;SDS011;68253;52.506;5.486;2024-02-26T14:26:38;6.40;;;1.83;;
78875;SDS011;68253;52.506;5.486;2024-02-26T14:29:05;6.38;;;1.85;;
78875;SDS011;68253;52.506;5.486;2024-02-26T14:31:32;8.57;;;2.10;;
78875;SDS011;68253;52.506;5.486;2024-02-26T14:33:59;7.68;;;2.00;;
78875;SDS011;68253;52.506;5.486;2024-02-26T14:36:25;5.53;;;1.55;;
78875;SDS011;68253;52.506;5.486;2024-02-26T14:38:54;6.70;;;2.10;;
78875;SDS011;68253;52.506;5.486;2024-02-26T14:41:21;6.07;;;1.88;;
78875;SDS011;68253;52.506;5.486;2024-02-26T14:43:47;7.60;;;2.47;;
78875;SDS011;68253;52.506;5.486;2024-02-26T14:46:13;7.03;;;2.08;;
78875;SDS011;68253;52.506;5.486;2024-02-26T14:48:39;6.03;;;1.88;;
78875;SDS011;68253;52.506;5.486;2024-02-26T14:51:05;6.80;;;2.00;;
78875;SDS011;68253;52.506;5.486;2024-02-26T14:53:32;7.13;;;2.40;;